sensor_id;sensor_type;location;lat;lon;timestamp;temperature;humidity
3980;DHT22;2004;52.452;13.120;2023-12-20T00:04:45;6.80;99.90
3980;DHT22;2004;52.452;13.120;2023-12-20T00:12:35;6.80;99.90
3980;DHT22;2004;52.452;13.120;2023-12-20T00:20:26;6.80;99.90
3980;DHT22;2004;52.452;13.120;2023-12-20T00:28:17;6.80;99.90
3980;DHT22;2004;52.452;13.120;2023-12-20T00:36:07;6.80;99.90
3980;DHT22;2004;52.452;13.120;2023-12-20T00:43:59;6.80;99.90
3980;DHT22;2004;52.452;13.120;2023-12-20T00:51:50;6.80;99.90
3980;DHT22;2004;52.452;13.120;2023-12-20T00:59:44;6.80;99.90
3980;DHT22;2004;52.452;13.120;2023-12-20T01:07:34;6.80;99.90
3980;DHT22;2004;52.452;13.120;2023-12-20T01:15:25;6.80;99.90
3980;DHT22;2004;52.452;13.120;2023-12-20T01:23:15;6.80;99.90
3980;DHT22;2004;52.452;13.120;2023-12-20T01:31:06;6.80;99.90
3980;DHT22;2004;52.452;13.120;2023-12-20T01:38:57;6.90;99.90
3980;DHT22;2004;52.452;13.120;2023-12-20T01:46:49;6.80;99.90
3980;DHT22;2004;52.452;13.120;2023-12-20T01:54:40;6.80;99.90
3980;DHT22;2004;52.452;13.120;2023-12-20T02:02:32;6.80;99.90
3980;DHT22;2004;52.452;13.120;2023-12-20T02:10:24;6.80;99.90
3980;DHT22;2004;52.452;13.120;2023-12-20T02:18:16;6.80;99.90
3980;DHT22;2004;52.452;13.120;2023-12-20T02:26:07;6.80;99.90
3980;DHT22;2004;52.452;13.120;2023-12-20T02:34:26;6.80;99.90
3980;DHT22;2004;52.452;13.120;2023-12-20T02:42:16;6.80;99.90
3980;DHT22;2004;52.452;13.120;2023-12-20T02:50:07;6.80;99.90
3980;DHT22;2004;52.452;13.120;2023-12-20T02:57:58;6.70;99.90
3980;DHT22;2004;52.452;13.120;2023-12-20T03:05:50;6.80;99.90
3980;DHT22;2004;52.452;13.120;2023-12-20T03:13:42;6.70;99.90
3980;DHT22;2004;52.452;13.120;2023-12-20T03:21:33;6.70;99.90
3980;DHT22;2004;52.452;13.120;2023-12-20T03:29:23;6.70;99.90
3980;DHT22;2004;52.452;13.120;2023-12-20T03:37:14;6.70;99.90
3980;DHT22;2004;52.452;13.120;2023-12-20T03:45:05;6.70;99.90
3980;DHT22;2004;52.452;13.120;2023-12-20T03:52:56;6.70;99.90
3980;DHT22;2004;52.452;13.120;2023-12-20T04:00:46;6.60;99.90
3980;DHT22;2004;52.452;13.120;2023-12-20T04:08:37;6.60;99.90
3980;DHT22;2004;52.452;13.120;2023-12-20T04:16:27;6.50;99.90
3980;DHT22;2004;52.452;13.120;2023-12-20T04:24:18;6.50;99.90
3980;DHT22;2004;52.452;13.120;2023-12-20T04:32:09;6.40;99.90
3980;DHT22;2004;52.452;13.120;2023-12-20T04:39:59;6.30;99.90
3980;DHT22;2004;52.452;13.120;2023-12-20T04:47:51;6.20;99.90
3980;DHT22;2004;52.452;13.120;2023-12-20T04:55:41;6.10;99.90
3980;DHT22;2004;52.452;13.120;2023-12-20T05:03:32;6.00;99.90
3980;DHT22;2004;52.452;13.120;2023-12-20T05:11:23;5.90;99.90
3980;DHT22;2004;52.452;13.120;2023-12-20T05:19:14;5.90;99.90
3980;DHT22;2004;52.452;13.120;2023-12-20T05:27:04;5.80;99.90
3980;DHT22;2004;52.452;13.120;2023-12-20T05:34:55;5.70;99.90
3980;DHT22;2004;52.452;13.120;2023-12-20T05:42:46;5.60;99.90
3980;DHT22;2004;52.452;13.120;2023-12-20T05:50:36;5.60;99.90
3980;DHT22;2004;52.452;13.120;2023-12-20T05:58:27;5.50;99.90
3980;DHT22;2004;52.452;13.120;2023-12-20T06:06:17;5.40;99.90
3980;DHT22;2004;52.452;13.120;2023-12-20T06:14:08;5.50;99.90
3980;DHT22;2004;52.452;13.120;2023-12-20T06:21:59;5.40;99.90
3980;DHT22;2004;52.452;13.120;2023-12-20T06:29:49;5.40;99.90
3980;DHT22;2004;52.452;13.120;2023-12-20T06:37:40;5.40;99.90
3980;DHT22;2004;52.452;13.120;2023-12-20T06:45:33;5.30;99.90
3980;DHT22;2004;52.452;13.120;2023-12-20T06:53:23;5.30;99.90
3980;DHT22;2004;52.452;13.120;2023-12-20T07:01:14;5.30;99.90
3980;DHT22;2004;52.452;13.120;2023-12-20T07:09:05;5.40;99.90
3980;DHT22;2004;52.452;13.120;2023-12-20T07:16:52;5.40;99.90
3980;DHT22;2004;52.452;13.120;2023-12-20T07:24:43;5.40;99.90
3980;DHT22;2004;52.452;13.120;2023-12-20T07:32:37;5.40;99.90
3980;DHT22;2004;52.452;13.120;2023-12-20T07:40:37;5.40;99.90
3980;DHT22;2004;52.452;13.120;2023-12-20T07:48:28;5.40;99.90
3980;DHT22;2004;52.452;13.120;2023-12-20T07:56:20;5.40;99.90
3980;DHT22;2004;52.452;13.120;2023-12-20T08:04:21;5.50;99.90
3980;DHT22;2004;52.452;13.120;2023-12-20T08:12:14;5.50;99.90
3980;DHT22;2004;52.452;13.120;2023-12-20T08:20:06;5.50;99.90
3980;DHT22;2004;52.452;13.120;2023-12-20T08:28:03;5.50;99.90
3980;DHT22;2004;52.452;13.120;2023-12-20T08:36:02;5.50;99.90
3980;DHT22;2004;52.452;13.120;2023-12-20T08:43:59;5.50;99.90
3980;DHT22;2004;52.452;13.120;2023-12-20T08:51:56;5.60;99.90
3980;DHT22;2004;52.452;13.120;2023-12-20T09:00:09;5.70;99.90
3980;DHT22;2004;52.452;13.120;2023-12-20T09:08:06;5.70;99.90
3980;DHT22;2004;52.452;13.120;2023-12-20T09:15:58;5.80;99.90
3980;DHT22;2004;52.452;13.120;2023-12-20T09:23:50;5.90;99.90
3980;DHT22;2004;52.452;13.120;2023-12-20T09:31:46;5.90;99.90
3980;DHT22;2004;52.452;13.120;2023-12-20T09:39:53;6.00;99.90
3980;DHT22;2004;52.452;13.120;2023-12-20T09:47:57;6.00;99.90
3980;DHT22;2004;52.452;13.120;2023-12-20T09:55:52;6.10;99.90
3980;DHT22;2004;52.452;13.120;2023-12-20T10:04:15;6.10;99.90
3980;DHT22;2004;52.452;13.120;2023-12-20T10:12:14;6.20;99.90
3980;DHT22;2004;52.452;13.120;2023-12-20T10:20:07;6.20;99.90
3980;DHT22;2004;52.452;13.120;2023-12-20T10:28:13;6.30;99.90
3980;DHT22;2004;52.452;13.120;2023-12-20T10:36:07;6.30;99.90
3980;DHT22;2004;52.452;13.120;2023-12-20T10:44:04;6.40;99.90
3980;DHT22;2004;52.452;13.120;2023-12-20T10:52:03;6.40;99.90
3980;DHT22;2004;52.452;13.120;2023-12-20T11:00:01;6.40;99.90
3980;DHT22;2004;52.452;13.120;2023-12-20T11:16:43;6.50;99.90
3980;DHT22;2004;52.452;13.120;2023-12-20T11:24:33;6.60;99.90
3980;DHT22;2004;52.452;13.120;2023-12-20T11:32:36;6.50;99.90
3980;DHT22;2004;52.452;13.120;2023-12-20T11:40:33;6.50;99.90
3980;DHT22;2004;52.452;13.120;2023-12-20T11:48:29;6.50;99.90
3980;DHT22;2004;52.452;13.120;2023-12-20T11:56:38;6.60;99.90
3980;DHT22;2004;52.452;13.120;2023-12-20T12:04:37;6.50;99.90
3980;DHT22;2004;52.452;13.120;2023-12-20T12:12:29;6.50;99.90
3980;DHT22;2004;52.452;13.120;2023-12-20T12:20:59;6.60;99.90
3980;DHT22;2004;52.452;13.120;2023-12-20T12:29:19;6.60;99.90
3980;DHT22;2004;52.452;13.120;2023-12-20T12:37:10;6.60;99.90
3980;DHT22;2004;52.452;13.120;2023-12-20T12:45:16;6.50;99.90
3980;DHT22;2004;52.452;13.120;2023-12-20T12:53:10;6.40;99.90
3980;DHT22;2004;52.452;13.120;2023-12-20T13:01:04;6.40;99.90
3980;DHT22;2004;52.452;13.120;2023-12-20T13:09:00;6.40;99.90
3980;DHT22;2004;52.452;13.120;2023-12-20T13:17:08;6.30;99.90
3980;DHT22;2004;52.452;13.120;2023-12-20T13:25:00;6.30;99.90
3980;DHT22;2004;52.452;13.120;2023-12-20T13:32:56;6.20;99.90
3980;DHT22;2004;52.452;13.120;2023-12-20T13:40:53;6.00;99.90
3980;DHT22;2004;52.452;13.120;2023-12-20T13:48:44;5.80;99.90
3980;DHT22;2004;52.452;13.120;2023-12-20T13:56:39;5.70;99.90
3980;DHT22;2004;52.452;13.120;2023-12-20T14:04:49;5.40;99.90
3980;DHT22;2004;52.452;13.120;2023-12-20T14:12:49;5.30;99.90
3980;DHT22;2004;52.452;13.120;2023-12-20T14:20:52;5.20;99.90
3980;DHT22;2004;52.452;13.120;2023-12-20T14:29:16;5.10;99.90
3980;DHT22;2004;52.452;13.120;2023-12-20T14:37:15;5.00;99.90
3980;DHT22;2004;52.452;13.120;2023-12-20T14:45:07;5.00;99.90
3980;DHT22;2004;52.452;13.120;2023-12-20T14:53:02;5.00;99.90
3980;DHT22;2004;52.452;13.120;2023-12-20T15:00:55;5.10;99.90
3980;DHT22;2004;52.452;13.120;2023-12-20T15:08:51;5.10;99.90
3980;DHT22;2004;52.452;13.120;2023-12-20T15:16:42;5.10;99.90
3980;DHT22;2004;52.452;13.120;2023-12-20T15:24:33;5.10;99.90
3980;DHT22;2004;52.452;13.120;2023-12-20T15:32:32;5.00;99.90
3980;DHT22;2004;52.452;13.120;2023-12-20T15:40:24;5.00;99.90
3980;DHT22;2004;52.452;13.120;2023-12-20T15:48:23;5.00;99.90
3980;DHT22;2004;52.452;13.120;2023-12-20T15:56:21;5.00;99.90
3980;DHT22;2004;52.452;13.120;2023-12-20T16:04:12;4.90;99.90
3980;DHT22;2004;52.452;13.120;2023-12-20T16:12:09;4.90;99.90
3980;DHT22;2004;52.452;13.120;2023-12-20T16:20:08;4.90;99.90
3980;DHT22;2004;52.452;13.120;2023-12-20T16:28:01;4.90;99.90
3980;DHT22;2004;52.452;13.120;2023-12-20T16:36:18;5.00;99.90
3980;DHT22;2004;52.452;13.120;2023-12-20T16:44:14;5.00;99.90
3980;DHT22;2004;52.452;13.120;2023-12-20T16:52:36;5.00;99.90
3980;DHT22;2004;52.452;13.120;2023-12-20T17:00:49;4.90;99.90
3980;DHT22;2004;52.452;13.120;2023-12-20T17:17:15;5.00;99.90
3980;DHT22;2004;52.452;13.120;2023-12-20T17:25:20;5.10;99.90
3980;DHT22;2004;52.452;13.120;2023-12-20T17:33:37;5.10;99.90
3980;DHT22;2004;52.452;13.120;2023-12-20T17:41:41;5.10;99.90
3980;DHT22;2004;52.452;13.120;2023-12-20T17:49:43;5.10;99.90
3980;DHT22;2004;52.452;13.120;2023-12-20T17:58:02;5.10;99.90
3980;DHT22;2004;52.452;13.120;2023-12-20T18:06:39;5.10;99.90
3980;DHT22;2004;52.452;13.120;2023-12-20T18:14:52;5.10;99.90
3980;DHT22;2004;52.452;13.120;2023-12-20T18:31:21;5.10;99.90
3980;DHT22;2004;52.452;13.120;2023-12-20T18:39:20;5.20;99.90
3980;DHT22;2004;52.452;13.120;2023-12-20T18:47:41;5.20;99.90
3980;DHT22;2004;52.452;13.120;2023-12-20T18:55:41;5.20;99.90
3980;DHT22;2004;52.452;13.120;2023-12-20T19:03:57;5.20;99.90
3980;DHT22;2004;52.452;13.120;2023-12-20T19:20:42;5.30;99.90
3980;DHT22;2004;52.452;13.120;2023-12-20T19:28:58;5.30;99.90
3980;DHT22;2004;52.452;13.120;2023-12-20T19:36:57;5.30;99.90
3980;DHT22;2004;52.452;13.120;2023-12-20T19:44:59;5.30;99.90
3980;DHT22;2004;52.452;13.120;2023-12-20T19:52:55;5.30;99.90
3980;DHT22;2004;52.452;13.120;2023-12-20T20:09:49;5.30;99.90
3980;DHT22;2004;52.452;13.120;2023-12-20T20:17:41;5.30;99.90
3980;DHT22;2004;52.452;13.120;2023-12-20T20:34:04;5.30;99.90
3980;DHT22;2004;52.452;13.120;2023-12-20T20:42:01;5.20;99.90
3980;DHT22;2004;52.452;13.120;2023-12-20T20:50:11;5.20;99.90
3980;DHT22;2004;52.452;13.120;2023-12-20T20:58:10;5.20;99.90
3980;DHT22;2004;52.452;13.120;2023-12-20T21:06:26;5.20;99.90
3980;DHT22;2004;52.452;13.120;2023-12-20T21:14:33;5.10;99.90
3980;DHT22;2004;52.452;13.120;2023-12-20T21:22:38;5.10;99.90
3980;DHT22;2004;52.452;13.120;2023-12-20T21:30:39;5.10;99.90
3980;DHT22;2004;52.452;13.120;2023-12-20T21:39:00;5.00;99.90
3980;DHT22;2004;52.452;13.120;2023-12-20T21:47:01;5.00;99.90
3980;DHT22;2004;52.452;13.120;2023-12-20T21:55:00;4.90;99.90
3980;DHT22;2004;52.452;13.120;2023-12-20T22:02:52;4.90;99.90
3980;DHT22;2004;52.452;13.120;2023-12-20T22:10:54;4.90;99.90
3980;DHT22;2004;52.452;13.120;2023-12-20T22:18:46;4.90;99.90
3980;DHT22;2004;52.452;13.120;2023-12-20T22:26:37;4.90;99.90
3980;DHT22;2004;52.452;13.120;2023-12-20T22:34:28;4.80;99.90
3980;DHT22;2004;52.452;13.120;2023-12-20T22:42:25;4.80;99.90
3980;DHT22;2004;52.452;13.120;2023-12-20T22:50:15;4.80;99.90
3980;DHT22;2004;52.452;13.120;2023-12-20T22:58:08;4.80;99.90
3980;DHT22;2004;52.452;13.120;2023-12-20T23:05:59;4.90;99.90
3980;DHT22;2004;52.452;13.120;2023-12-20T23:13:52;4.90;99.90
3980;DHT22;2004;52.452;13.120;2023-12-20T23:21:43;4.90;99.90
3980;DHT22;2004;52.452;13.120;2023-12-20T23:29:34;4.90;99.90
3980;DHT22;2004;52.452;13.120;2023-12-20T23:37:25;4.90;99.90
3980;DHT22;2004;52.452;13.120;2023-12-20T23:45:16;5.00;99.90
3980;DHT22;2004;52.452;13.120;2023-12-20T23:53:10;5.00;99.90
